Time;durP1;ratioP1;P1;durP2;ratioP2;P2;SDS_P1;SDS_P2;PMS_P1;PMS_P2;Temp;Humidity;BMP_temperature;BMP_pressure;BME280_temperature;BME280_humidity;BME280_pressure;Samples;Min_cycle;Max_cycle;Signal;HPM_P1;HPM_P2
2022/07/04 00:01:00;;;;;;;2.43;1.77;;;;;;;21.48;73.41;98453.81;5136217;27;20220;-75
2022/07/04 00:03:27;;;;;;;2.53;1.80;;;;;;;21.42;73.67;98454.47;5134488;27;20233;-74
2022/07/04 00:05:53;;;;;;;1.60;1.50;;;;;;;21.38;73.64;98459.34;5136578;27;20205;-75
2022/07/04 00:08:21;;;;;;;2.03;1.70;;;;;;;21.38;73.21;98459.34;5136110;27;20221;-74
2022/07/04 00:10:48;;;;;;;2.83;1.67;;;;;;;21.38;72.72;98453.97;5135856;27;20213;-74
2022/07/04 00:13:14;;;;;;;1.93;1.53;;;;;;;21.30;72.89;98456.66;5135836;27;20213;-74
2022/07/04 00:15:41;;;;;;;2.97;1.70;;;;;;;21.26;72.80;98449.91;5135999;27;20209;-74
2022/07/04 00:18:07;;;;;;;3.00;1.70;;;;;;;21.24;72.62;98446.56;5136062;27;20210;-74
2022/07/04 00:20:34;;;;;;;3.33;1.70;;;;;;;21.22;72.26;98442.34;5135636;27;20693;-74
2022/07/04 00:23:01;;;;;;;3.13;1.90;;;;;;;21.24;71.86;98435.81;5135742;27;20237;-74
2022/07/04 00:25:29;;;;;;;1.80;1.70;;;;;;;21.23;71.61;98449.41;5135955;27;20210;-74
2022/07/04 00:27:55;;;;;;;2.10;1.77;;;;;;;21.15;72.01;98439.47;5135564;27;20667;-74
2022/07/04 00:30:22;;;;;;;3.60;1.70;;;;;;;21.13;72.24;98444.16;5134141;27;20304;-74
2022/07/04 00:32:48;;;;;;;2.37;1.70;;;;;;;21.09;72.49;98485.81;5126236;27;20209;-74
2022/07/04 00:35:15;;;;;;;2.37;1.60;;;;;;;21.05;73.01;98454.91;5135660;27;20590;-74
2022/07/04 00:37:42;;;;;;;2.70;1.80;;;;;;;21.05;72.95;98448.69;5135164;27;20603;-74
2022/07/04 00:40:09;;;;;;;2.10;1.90;;;;;;;21.06;72.77;98445.84;5135349;27;20674;-74
2022/07/04 00:42:37;;;;;;;3.30;1.83;;;;;;;21.05;72.42;98451.38;5135085;27;20797;-74
2022/07/04 00:45:04;;;;;;;2.80;1.83;;;;;;;21.04;72.19;98460.44;5135265;27;20217;-74
2022/07/04 00:47:31;;;;;;;2.97;2.10;;;;;;;21.00;72.64;98453.69;5135382;27;20300;-74
2022/07/04 00:49:57;;;;;;;1.93;1.50;;;;;;;21.00;72.61;98449.19;5135420;27;20215;-74
2022/07/04 00:52:24;;;;;;;2.70;1.90;;;;;;;21.01;72.62;98456.22;5134980;27;20209;-74
2022/07/04 00:54:51;;;;;;;2.20;1.70;;;;;;;21.01;72.04;98464.28;5134969;27;20216;-74
2022/07/04 00:57:17;;;;;;;2.10;1.80;;;;;;;20.93;72.33;98474.16;5133280;27;20219;-74
2022/07/04 00:59:45;;;;;;;1.80;1.70;;;;;;;20.93;72.74;98468.78;5128681;27;20220;-74
2022/07/04 01:02:12;;;;;;;3.13;1.90;;;;;;;20.84;73.02;98464.38;5128355;27;20221;-75
2022/07/04 01:04:38;;;;;;;2.00;1.87;;;;;;;20.80;72.74;98455.75;5124948;27;20218;-76
2022/07/04 01:07:06;;;;;;;1.83;1.70;;;;;;;20.71;73.24;98448.69;5126083;27;20301;-75
2022/07/04 01:09:33;;;;;;;2.60;1.93;;;;;;;20.58;73.98;98458.19;5128258;27;20210;-75
2022/07/04 01:12:00;;;;;;;4.70;1.70;;;;;;;20.53;74.58;98450.63;5128378;27;20216;-75
2022/07/04 01:14:26;;;;;;;1.60;1.50;;;;;;;20.49;74.61;98464.53;5133286;27;20217;-76
2022/07/04 01:16:54;;;;;;;3.60;2.03;;;;;;;20.43;75.17;98455.25;5134820;27;20219;-74
2022/07/04 01:19:20;;;;;;;2.43;1.90;;;;;;;20.42;75.16;98452.75;5134524;27;20671;-74
2022/07/04 01:21:48;;;;;;;1.97;1.70;;;;;;;20.36;75.41;98451.53;5133037;27;20216;-75
2022/07/04 01:24:15;;;;;;;2.90;1.90;;;;;;;20.33;75.13;98456.38;5134592;27;20251;-75
2022/07/04 01:26:41;;;;;;;2.33;1.80;;;;;;;20.21;76.06;98454.94;5134487;27;20209;-74
2022/07/04 01:29:08;;;;;;;3.80;1.73;;;;;;;20.25;76.11;98462.53;5134730;27;20213;-74
2022/07/04 01:31:34;;;;;;;3.63;2.00;;;;;;;20.22;75.84;98457.50;5134708;27;20213;-75
2022/07/04 01:34:01;;;;;;;3.23;1.57;;;;;;;20.16;76.01;98458.13;5134499;27;20296;-74
2022/07/04 01:36:28;;;;;;;2.70;1.73;;;;;;;20.17;76.54;98453.59;5134292;27;20256;-76
2022/07/04 01:38:56;;;;;;;2.20;1.70;;;;;;;20.15;76.22;98461.81;5134285;27;20225;-74
2022/07/04 01:41:22;;;;;;;1.97;1.80;;;;;;;20.10;76.59;98450.69;5134449;27;20221;-74
2022/07/04 01:43:49;;;;;;;4.30;1.90;;;;;;;20.10;76.85;98463.25;5134260;27;20244;-74
2022/07/04 01:46:15;;;;;;;2.73;1.80;;;;;;;20.08;77.04;98463.44;5134334;27;20205;-74
2022/07/04 01:48:42;;;;;;;4.13;2.00;;;;;;;20.05;77.04;98466.38;5132644;27;20216;-75
2022/07/04 01:51:08;;;;;;;2.03;1.73;;;;;;;20.00;77.05;98471.38;5133993;27;20220;-75
2022/07/04 01:53:37;;;;;;;2.60;1.80;;;;;;;19.92;77.36;98482.06;5134268;27;20217;-75
2022/07/04 01:56:05;;;;;;;2.47;2.00;;;;;;;19.89;77.25;98468.97;5134962;27;20206;-75
2022/07/04 01:58:32;;;;;;;2.20;1.70;;;;;;;19.87;77.42;98472.81;5117548;27;20225;-74
2022/07/04 02:03:43;;;;;;;1.87;1.77;;;;;;;19.89;76.90;98482.38;5134011;27;20743;-74
2022/07/04 02:06:09;;;;;;;2.90;1.70;;;;;;;19.76;77.46;98476.53;5134174;27;20216;-74
2022/07/04 02:11:17;;;;;;;2.53;1.87;;;;;;;19.55;78.62;98477.84;5125178;27;20713;-74
2022/07/04 02:13:43;;;;;;;2.50;1.80;;;;;;;19.50;79.20;98490.91;5131925;28;20209;-75
2022/07/04 02:16:10;;;;;;;2.53;1.93;;;;;;;19.39;80.00;98481.22;5134029;28;20215;-74
2022/07/04 02:18:36;;;;;;;2.17;1.97;;;;;;;19.37;79.91;98485.91;5133674;27;20213;-75
2022/07/04 02:21:03;;;;;;;3.90;1.80;;;;;;;19.35;80.00;98506.66;5138456;27;20219;-74
2022/07/04 02:23:30;;;;;;;2.43;2.20;;;;;;;19.25;80.84;98492.47;5138266;27;20590;-75
2022/07/04 02:25:57;;;;;;;2.77;2.07;;;;;;;19.21;81.56;98491.09;5138129;27;20213;-75
2022/07/04 02:28:25;;;;;;;3.30;2.00;;;;;;;19.19;81.63;98487.69;5138113;27;20205;-73
2022/07/04 02:30:51;;;;;;;3.80;1.93;;;;;;;19.11;82.13;98476.91;5128920;27;20308;-75
2022/07/04 02:33:18;;;;;;;3.03;2.27;;;;;;;18.96;83.43;98481.06;5138135;27;20213;-73
2022/07/04 02:35:44;;;;;;;5.03;1.90;;;;;;;18.99;83.56;98502.22;5137536;27;20201;-74
2022/07/04 02:38:11;;;;;;;2.90;2.27;;;;;;;19.02;83.08;98501.88;5137738;27;20237;-74
2022/07/04 02:40:37;;;;;;;2.20;2.00;;;;;;;19.02;83.00;98496.53;5136203;27;20213;-72
2022/07/04 02:43:04;;;;;;;3.37;1.90;;;;;;;19.09;82.36;98496.78;5137887;27;20237;-74
2022/07/04 02:45:32;;;;;;;4.33;2.10;;;;;;;19.04;82.49;98505.28;5137519;27;20225;-74
2022/07/04 02:47:58;;;;;;;2.67;2.00;;;;;;;19.00;82.51;98509.25;5137468;27;20213;-74
2022/07/04 02:50:25;;;;;;;3.50;2.00;;;;;;;18.98;82.56;98516.59;5137732;27;20224;-74
2022/07/04 02:52:52;;;;;;;2.63;1.90;;;;;;;18.89;83.41;98506.75;5137760;27;20227;-74
2022/07/04 02:55:18;;;;;;;2.60;2.10;;;;;;;18.87;83.14;98658.75;5137692;27;20213;-74
2022/07/04 02:57:45;;;;;;;3.07;2.00;;;;;;;18.82;83.43;98535.13;5137605;27;20209;-73
2022/07/04 03:00:12;;;;;;;2.63;1.90;;;;;;;18.90;83.01;98537.91;5137478;27;20216;-74
2022/07/04 03:02:40;;;;;;;1.97;1.80;;;;;;;18.90;83.24;98535.22;5137489;27;20213;-73
2022/07/04 03:05:08;;;;;;;3.57;2.10;;;;;;;18.85;83.35;98532.16;5137261;27;20235;-74
2022/07/04 03:07:34;;;;;;;3.27;1.97;;;;;;;18.87;83.31;98534.69;5135684;27;20217;-74
2022/07/04 03:10:01;;;;;;;3.27;2.10;;;;;;;18.84;82.97;98535.81;5137418;27;20209;-74
2022/07/04 03:12:28;;;;;;;3.67;1.97;;;;;;;18.78;83.72;98535.56;5137112;27;20213;-73
2022/07/04 03:14:54;;;;;;;2.17;2.00;;;;;;;18.72;84.12;98557.59;5137304;27;20299;-74
2022/07/04 03:17:21;;;;;;;3.03;2.10;;;;;;;18.69;84.27;98548.00;5137173;27;20556;-73
2022/07/04 03:19:48;;;;;;;4.47;2.00;;;;;;;18.65;84.30;98541.25;5137143;27;20308;-73
2022/07/04 03:22:15;;;;;;;2.07;1.90;;;;;;;18.55;84.35;98536.94;5137153;27;20300;-74
2022/07/04 03:24:42;;;;;;;3.10;1.83;;;;;;;18.56;84.00;98528.75;5136650;27;20233;-74
2022/07/04 03:27:08;;;;;;;2.07;1.73;;;;;;;18.50;84.73;98547.22;5136732;27;20666;-73
2022/07/04 03:29:35;;;;;;;4.43;1.97;;;;;;;18.46;84.42;98530.59;5136965;27;20572;-73
2022/07/04 03:32:01;;;;;;;2.73;2.03;;;;;;;18.42;85.02;98539.91;5134978;27;20308;-73
2022/07/04 03:34:28;;;;;;;3.43;2.10;;;;;;;18.38;85.53;98541.19;5136488;27;20205;-73
2022/07/04 03:36:56;;;;;;;2.47;1.90;;;;;;;18.37;85.40;98535.97;5136781;27;20230;-73
2022/07/04 03:39:22;;;;;;;1.87;1.73;;;;;;;18.36;85.80;98550.38;5136541;27;20781;-73
2022/07/04 03:41:49;;;;;;;2.33;2.00;;;;;;;18.39;85.66;98556.28;5136645;27;20682;-74
2022/07/04 03:44:16;;;;;;;2.23;1.90;;;;;;;18.42;85.59;98560.50;5127102;27;20602;-74
2022/07/04 03:46:43;;;;;;;3.03;1.90;;;;;;;18.40;86.17;98576.69;5136802;27;20216;-73
2022/07/04 03:49:09;;;;;;;3.87;2.03;;;;;;;18.37;85.67;98560.06;5136622;27;20224;-73
2022/07/04 03:51:36;;;;;;;2.80;2.13;;;;;;;18.37;85.74;98560.06;5136799;27;20214;-74
2022/07/04 03:54:04;;;;;;;3.07;2.10;;;;;;;18.36;85.84;98564.56;5136228;27;20215;-73
2022/07/04 03:56:30;;;;;;;3.97;2.20;;;;;;;18.36;85.56;98564.56;5129509;27;20215;-73
2022/07/04 03:58:57;;;;;;;4.70;2.10;;;;;;;18.40;85.44;98557.13;5134507;27;20217;-73
2022/07/04 04:01:24;;;;;;;4.60;2.17;;;;;;;18.44;84.91;98563.84;5136286;27;20667;-74
2022/07/04 04:06:34;;;;;;;7.30;2.37;;;;;;;18.30;85.85;98570.47;5131161;27;20208;-73
2022/07/04 04:09:01;;;;;;;2.47;2.10;;;;;;;18.30;85.73;98570.47;5135959;27;20328;-73
2022/07/04 04:11:30;;;;;;;5.43;2.40;;;;;;;18.33;85.73;98570.22;5136155;27;20213;-73
2022/07/04 04:13:57;;;;;;;2.87;2.43;;;;;;;18.27;86.32;98568.09;5136032;27;20245;-74
2022/07/04 04:16:23;;;;;;;2.43;2.07;;;;;;;18.31;86.18;98574.03;5136037;27;20221;-73
2022/07/04 04:18:50;;;;;;;2.20;2.00;;;;;;;18.34;86.23;98579.09;5136277;27;20636;-73
2022/07/04 04:21:16;;;;;;;3.30;2.17;;;;;;;18.35;86.14;98567.41;5135649;27;20220;-74
2022/07/04 04:23:43;;;;;;;4.07;2.07;;;;;;;18.33;86.23;98583.59;5133659;27;20235;-74
2022/07/04 04:26:09;;;;;;;4.97;2.23;;;;;;;18.36;86.75;98583.31;5135957;27;20213;-74
2022/07/04 04:28:37;;;;;;;3.73;2.37;;;;;;;18.38;86.64;98580.50;5135795;27;20302;-74
2022/07/04 04:31:04;;;;;;;3.73;2.27;;;;;;;18.38;87.26;98581.34;5135690;27;20210;-74
2022/07/04 04:33:30;;;;;;;3.47;2.10;;;;;;;18.44;87.16;98591.47;5135885;27;20213;-74
2022/07/04 04:35:57;;;;;;;2.80;2.20;;;;;;;18.48;87.21;98592.03;5135650;27;20209;-74
2022/07/04 04:38:23;;;;;;;2.97;2.40;;;;;;;18.54;87.47;98605.66;5135827;27;20237;-74
2022/07/04 04:40:50;;;;;;;5.33;2.17;;;;;;;18.63;87.50;98614.69;5135377;27;20223;-74
2022/07/04 04:43:16;;;;;;;2.40;2.20;;;;;;;18.66;87.65;98623.25;5134784;27;20210;-73
2022/07/04 04:45:44;;;;;;;3.47;2.20;;;;;;;18.74;87.13;98619.88;5135101;27;20210;-74
2022/07/04 04:48:11;;;;;;;2.13;1.83;;;;;;;18.79;85.90;98621.16;5135414;27;20581;-73
2022/07/04 04:50:37;;;;;;;2.33;1.90;;;;;;;18.83;85.65;98625.19;5133928;27;20220;-73
2022/07/04 04:53:04;;;;;;;3.70;1.83;;;;;;;18.91;84.59;98627.97;5135069;27;20697;-74
2022/07/04 04:55:30;;;;;;;3.07;2.23;;;;;;;18.96;84.59;98635.59;5127886;27;20210;-74
2022/07/04 04:57:57;;;;;;;2.20;1.80;;;;;;;19.01;84.77;98630.66;5134400;27;20222;-73
2022/07/04 05:00:24;;;;;;;2.00;1.80;;;;;;;19.16;83.72;98632.72;5126647;27;20577;-74
2022/07/04 05:02:52;;;;;;;2.63;1.87;;;;;;;19.27;82.88;98640.56;5134908;27;20694;-74
2022/07/04 05:05:18;;;;;;;2.27;1.80;;;;;;;19.41;81.68;98642.78;5135034;27;20319;-74
2022/07/04 05:07:45;;;;;;;3.37;1.83;;;;;;;19.69;80.60;98649.81;5135107;27;20300;-74
2022/07/04 05:10:11;;;;;;;2.47;1.97;;;;;;;19.99;79.22;98654.03;5135244;27;20216;-74
2022/07/04 05:12:38;;;;;;;2.20;1.70;;;;;;;20.35;76.96;98655.75;5135112;27;20209;-73
2022/07/04 05:15:05;;;;;;;2.10;1.90;;;;;;;20.67;73.32;98653.34;5134691;27;20223;-74
2022/07/04 05:17:32;;;;;;;1.67;1.53;;;;;;;20.80;72.34;98651.06;5133128;27;20206;-74
2022/07/04 05:20:00;;;;;;;3.13;1.80;;;;;;;20.91;71.38;98665.13;5125618;27;20213;-74
2022/07/04 05:22:26;;;;;;;2.57;1.60;;;;;;;20.63;72.60;98665.38;5134888;27;20216;-74
2022/07/04 05:24:53;;;;;;;2.47;1.80;;;;;;;20.47;73.97;98654.53;5134820;27;20248;-74
2022/07/04 05:27:19;;;;;;;2.20;1.50;;;;;;;20.87;73.07;98663.72;5134826;27;20215;-74
2022/07/04 05:29:46;;;;;;;6.00;1.83;;;;;;;21.50;69.77;98661.59;5134778;27;20213;-73
2022/07/04 05:32:12;;;;;;;4.03;2.00;;;;;;;22.50;65.52;98669.47;5134525;27;20213;-73
2022/07/04 05:34:39;;;;;;;4.73;1.63;;;;;;;23.21;61.79;98675.88;5134355;27;20262;-73
2022/07/04 05:37:07;;;;;;;2.30;1.60;;;;;;;22.87;61.37;98667.13;5134147;27;20243;-79
2022/07/04 05:39:33;;;;;;;3.17;1.80;;;;;;;22.21;64.33;98654.78;5134482;27;20220;-79
2022/07/04 05:42:00;;;;;;;5.00;1.93;;;;;;;21.70;66.13;98653.13;5132862;27;20209;-79
2022/07/04 05:44:28;;;;;;;3.00;1.80;;;;;;;21.80;66.12;98653.84;5134079;27;20720;-79
2022/07/04 05:46:55;;;;;;;3.27;1.60;;;;;;;22.32;63.55;98663.38;5134465;27;20254;-79
2022/07/04 05:49:21;;;;;;;3.27;1.57;;;;;;;23.06;61.73;98666.78;5134029;27;20216;-79
2022/07/04 05:51:48;;;;;;;2.97;1.80;;;;;;;24.08;58.65;98681.97;5134235;27;20220;-79
2022/07/04 05:54:16;;;;;;;2.60;1.50;;;;;;;24.95;54.89;98677.00;5133109;27;20205;-79
2022/07/04 05:56:42;;;;;;;2.53;1.70;;;;;;;25.48;50.43;98684.09;5134391;27;20218;-78
2022/07/04 05:59:09;;;;;;;2.47;1.13;;;;;;;25.69;50.34;98682.31;5134072;27;20232;-79
2022/07/04 06:01:36;;;;;;;2.00;1.50;;;;;;;25.81;50.26;98679.97;5134159;27;20205;-77
2022/07/04 06:04:03;;;;;;;2.20;1.37;;;;;;;25.58;50.17;98677.38;5134016;27;20237;-73
2022/07/04 06:06:30;;;;;;;3.97;1.73;;;;;;;25.39;51.20;98675.22;5133983;27;20228;-73
2022/07/04 06:08:57;;;;;;;4.07;1.50;;;;;;;25.06;52.20;98663.00;5132105;27;20210;-73
2022/07/04 06:11:25;;;;;;;3.27;1.50;;;;;;;24.81;52.91;98652.63;5133839;27;20685;-73
2022/07/04 06:13:51;;;;;;;1.93;1.70;;;;;;;24.28;54.09;98640.00;5124486;27;20233;-73
2022/07/04 06:16:18;;;;;;;3.00;1.70;;;;;;;23.82;54.97;98643.59;5133748;28;20223;-72
2022/07/04 06:18:45;;;;;;;7.97;1.53;;;;;;;23.25;57.32;98634.06;5133918;28;20216;-72
2022/07/04 06:21:12;;;;;;;2.23;1.50;;;;;;;22.84;59.20;98621.66;5133895;28;20219;-73
2022/07/04 06:23:38;;;;;;;1.87;1.40;;;;;;;22.79;59.13;98624.00;5133794;28;20209;-73
2022/07/04 06:26:05;;;;;;;2.70;1.53;;;;;;;22.82;59.37;98620.13;5133851;28;20212;-73
2022/07/04 06:28:33;;;;;;;4.90;1.70;;;;;;;22.73;60.52;98622.00;5134002;28;20211;-73
2022/07/04 06:30:59;;;;;;;4.47;1.83;;;;;;;22.82;60.59;98626.38;5133979;28;20236;-73
2022/07/04 06:33:26;;;;;;;2.90;1.40;;;;;;;23.03;60.00;98633.94;5132625;28;20234;-73
2022/07/04 06:35:54;;;;;;;3.17;1.70;;;;;;;23.14;59.10;98637.09;5133213;28;20209;-72
2022/07/04 06:38:23;;;;;;;2.60;1.60;;;;;;;23.14;59.46;98641.63;5133986;28;20242;-72
2022/07/04 06:40:51;;;;;;;3.17;1.80;;;;;;;23.34;59.25;98637.59;5133836;28;20213;-72
2022/07/04 06:43:18;;;;;;;2.30;1.57;;;;;;;23.76;55.34;98644.31;5133748;28;20218;-73
2022/07/04 06:45:46;;;;;;;2.83;2.07;;;;;;;24.26;53.85;98652.00;5133745;28;20232;-74
2022/07/04 06:48:13;;;;;;;2.20;1.80;;;;;;;24.19;55.15;98646.47;5133558;28;20228;-73
2022/07/04 06:50:39;;;;;;;2.43;1.80;;;;;;;24.13;54.41;98657.97;5133723;28;20213;-74
2022/07/04 06:53:08;;;;;;;4.33;1.83;;;;;;;23.96;54.88;98659.09;5133673;28;20655;-73
2022/07/04 06:55:36;;;;;;;2.37;1.80;;;;;;;24.07;54.82;98653.28;5132070;28;20219;-73
2022/07/04 06:58:03;;;;;;;2.00;1.80;;;;;;;24.07;54.58;98653.28;5131035;28;20304;-73
2022/07/04 07:00:30;;;;;;;2.73;1.67;;;;;;;24.01;54.51;98654.00;5130509;28;20216;-70
2022/07/04 07:02:58;;;;;;;3.17;1.80;;;;;;;24.08;54.49;98652.25;5132621;28;20214;-73
2022/07/04 07:05:25;;;;;;;2.23;1.90;;;;;;;23.96;54.77;98650.16;5134867;27;20249;-73
2022/07/04 07:07:52;;;;;;;2.53;1.73;;;;;;;23.79;56.04;98643.97;5137339;27;20224;-73
2022/07/04 07:10:19;;;;;;;3.10;2.00;;;;;;;23.61;57.59;98629.88;5137332;27;20205;-73
2022/07/04 07:12:45;;;;;;;3.30;1.80;;;;;;;23.46;58.79;98628.94;5137340;27;20209;-73
2022/07/04 07:15:13;;;;;;;2.60;2.13;;;;;;;23.51;58.35;98626.56;5137392;27;20221;-73
2022/07/04 07:17:39;;;;;;;2.77;1.90;;;;;;;23.38;57.24;98623.56;5137166;27;20209;-73
2022/07/04 07:20:08;;;;;;;2.97;1.90;;;;;;;23.31;57.46;98627.97;5137241;27;20209;-73
2022/07/04 07:22:35;;;;;;;2.43;1.90;;;;;;;23.24;57.41;98616.22;5137150;27;20566;-73
2022/07/04 07:25:01;;;;;;;1.93;1.73;;;;;;;23.31;57.62;98627.97;5137023;27;20243;-73
2022/07/04 07:27:28;;;;;;;2.50;1.80;;;;;;;23.29;57.46;98613.81;5135173;27;20674;-73
2022/07/04 07:29:55;;;;;;;2.30;2.07;;;;;;;23.24;56.99;98604.56;5128681;27;20224;-74
2022/07/04 07:32:21;;;;;;;1.90;1.80;;;;;;;23.16;57.07;98600.03;5136872;27;20219;-73
2022/07/04 07:34:48;;;;;;;2.53;1.57;;;;;;;23.20;57.42;98590.59;5136904;27;20216;-72
2022/07/04 07:37:17;;;;;;;2.47;1.90;;;;;;;23.12;58.03;98596.00;5136796;27;20248;-78
2022/07/04 07:39:44;;;;;;;2.53;1.63;;;;;;;22.91;60.08;98824.84;5136183;27;20205;-76
2022/07/04 07:42:10;;;;;;;4.60;2.20;;;;;;;22.89;60.11;98591.47;5136800;27;20210;-75
2022/07/04 07:44:37;;;;;;;2.13;1.90;;;;;;;22.74;60.48;98591.34;5136284;27;20725;-73
2022/07/04 07:47:04;;;;;;;4.33;2.20;;;;;;;22.64;59.92;98596.09;5135969;27;20212;-72
2022/07/04 07:49:30;;;;;;;2.93;2.20;;;;;;;22.62;60.47;98595.38;5126113;27;20688;-72
2022/07/04 07:51:57;;;;;;;4.63;2.20;;;;;;;22.59;61.41;98590.34;5133598;27;20221;-72
2022/07/04 07:54:25;;;;;;;3.17;2.07;;;;;;;22.61;61.29;98595.59;5135367;27;20219;-72
2022/07/04 07:56:51;;;;;;;3.70;2.20;;;;;;;22.62;61.03;98595.38;5134874;27;20209;-71
2022/07/04 07:59:18;;;;;;;2.77;2.20;;;;;;;22.74;61.21;98591.34;5135120;27;20211;-72
2022/07/04 08:01:44;;;;;;;2.53;2.10;;;;;;;22.74;61.07;98591.34;5135226;27;20205;-72
2022/07/04 08:06:51;;;;;;;2.80;2.10;;;;;;;22.83;61.18;98589.47;5116938;27;20206;-72
2022/07/04 08:09:18;;;;;;;2.70;1.80;;;;;;;22.95;60.95;98733.69;5134704;27;20216;-71
2022/07/04 08:11:46;;;;;;;2.60;2.03;;;;;;;23.08;60.77;98860.75;5134757;27;20216;-71
2022/07/04 08:14:13;;;;;;;2.37;2.17;;;;;;;23.15;60.05;98775.47;5135177;27;20228;-71
2022/07/04 08:16:40;;;;;;;4.47;2.00;;;;;;;23.06;60.38;98741.44;5133886;27;20209;-72
2022/07/04 08:19:07;;;;;;;3.17;2.00;;;;;;;23.12;60.13;98686.81;5133328;27;20222;-72
2022/07/04 08:21:34;;;;;;;2.10;1.90;;;;;;;23.11;60.45;98715.63;5134567;27;20209;-72
2022/07/04 08:24:00;;;;;;;2.83;2.00;;;;;;;23.11;60.20;98702.16;5134574;27;20228;-71
2022/07/04 08:26:27;;;;;;;4.43;1.93;;;;;;;23.13;60.54;98683.09;5132833;27;20233;-72
2022/07/04 08:28:57;;;;;;;2.17;1.97;;;;;;;23.12;60.53;98585.19;5132048;27;20307;-73
2022/07/04 08:31:24;;;;;;;3.97;2.60;;;;;;;23.14;59.42;98733.31;5133644;27;20651;-72
2022/07/04 08:33:50;;;;;;;2.57;1.90;;;;;;;23.06;59.72;98720.72;5133487;27;20216;-73
2022/07/04 08:36:17;;;;;;;2.20;2.00;;;;;;;22.99;61.12;98698.13;5130758;27;20217;-72
2022/07/04 08:38:43;;;;;;;4.73;1.90;;;;;;;22.99;60.15;98690.03;5123493;27;20206;-73
2022/07/04 08:41:10;;;;;;;2.70;1.90;;;;;;;23.04;60.49;98684.16;5133946;27;20213;-73
2022/07/04 08:43:37;;;;;;;2.30;1.93;;;;;;;23.06;59.70;98679.41;5133384;27;20753;-73
2022/07/04 08:46:06;;;;;;;2.57;2.30;;;;;;;23.14;59.35;98671.31;5132231;27;20283;-72
2022/07/04 08:48:34;;;;;;;2.50;2.00;;;;;;;23.26;57.98;98660.03;5133956;27;20231;-72
2022/07/04 08:51:10;;;;;;;2.83;2.03;;;;;;;23.47;57.07;98665.69;5134123;27;20555;-72
2022/07/04 08:53:39;;;;;;;3.27;2.20;;;;;;;23.51;57.11;98655.38;5130529;27;20210;-72
2022/07/04 08:58:51;;;;;;;2.43;1.90;;;;;;;23.62;59.45;98645.06;5133812;27;20221;-72
2022/07/04 09:01:20;;;;;;;3.30;2.03;;;;;;;23.83;60.60;98645.28;5134252;27;20309;-75
2022/07/04 09:03:46;;;;;;;5.17;2.00;;;;;;;23.75;59.26;98645.34;5133667;27;20296;-72
2022/07/04 09:06:13;;;;;;;3.63;2.30;;;;;;;23.75;56.58;98639.94;5133715;27;20239;-75
2022/07/04 09:08:41;;;;;;;2.47;2.27;;;;;;;23.74;56.88;98651.75;5133951;27;20205;-75
2022/07/04 09:11:08;;;;;;;3.47;2.20;;;;;;;23.79;57.16;98641.28;5131868;27;20316;-74
2022/07/04 09:13:35;;;;;;;4.03;2.30;;;;;;;23.89;57.30;98650.00;5133829;27;20213;-72
2022/07/04 09:16:03;;;;;;;2.97;2.40;;;;;;;24.04;57.33;98650.97;5133412;27;20671;-73
2022/07/04 09:18:32;;;;;;;3.00;1.93;;;;;;;24.10;58.52;98642.16;5133582;27;20213;-74
2022/07/04 09:21:02;;;;;;;2.10;1.90;;;;;;;24.26;59.58;98647.41;5133367;27;20217;-74
2022/07/04 09:23:30;;;;;;;2.83;2.03;;;;;;;24.48;58.90;98668.22;5133452;27;20224;-73
2022/07/04 09:26:13;;;;;;;3.63;2.40;;;;;;;24.71;56.72;98660.13;5133349;27;20379;-73
2022/07/04 09:28:41;;;;;;;2.63;2.27;;;;;;;24.89;55.92;98647.13;5133190;27;20212;-73
2022/07/04 09:31:16;;;;;;;2.57;2.10;;;;;;;25.08;55.08;98649.28;5133292;27;20212;-73
2022/07/04 09:33:50;;;;;;;4.37;2.23;;;;;;;25.28;55.28;98650.47;5133344;27;20214;-74
2022/07/04 09:36:18;;;;;;;3.03;2.10;;;;;;;25.21;52.55;98650.34;5133043;27;20214;-73
2022/07/04 09:38:45;;;;;;;2.03;1.83;;;;;;;25.05;54.16;98645.09;5131682;27;20232;-73
2022/07/04 09:41:29;;;;;;;4.30;2.17;;;;;;;24.98;54.91;98644.16;5133071;27;20209;-73
2022/07/04 09:44:01;;;;;;;4.20;2.13;;;;;;;24.78;55.67;98636.75;5132923;27;20209;-73
2022/07/04 09:46:28;;;;;;;2.20;2.00;;;;;;;24.73;56.87;98639.16;5132938;27;20240;-73
2022/07/04 09:48:56;;;;;;;4.13;2.20;;;;;;;24.60;56.32;98645.19;5132774;27;20209;-73
2022/07/04 09:51:37;;;;;;;3.33;2.03;;;;;;;24.38;55.42;98651.38;5133104;27;20295;-73
2022/07/04 09:54:14;;;;;;;2.30;2.10;;;;;;;24.33;56.03;98639.44;5123238;27;20232;-74
2022/07/04 09:56:41;;;;;;;2.30;2.10;;;;;;;24.27;55.66;98643.69;5132940;27;20312;-74
2022/07/04 09:59:07;;;;;;;3.93;2.30;;;;;;;24.11;56.35;98643.81;5132970;27;20224;-74
2022/07/04 10:01:34;;;;;;;2.83;2.13;;;;;;;24.11;56.79;98637.56;5133159;27;20209;-74
2022/07/04 10:04:03;;;;;;;2.90;2.20;;;;;;;24.23;57.96;98652.34;5131142;27;20220;-74
2022/07/04 10:06:32;;;;;;;2.20;2.00;;;;;;;24.44;57.48;98642.56;5132909;27;20241;-74
2022/07/04 10:09:08;;;;;;;2.00;1.90;;;;;;;24.73;57.01;98637.28;5132686;27;20593;-74
2022/07/04 10:11:34;;;;;;;2.37;1.80;;;;;;;24.95;52.73;98638.28;5132646;27;20217;-74
2022/07/04 10:14:01;;;;;;;2.90;1.70;;;;;;;24.91;53.32;98640.50;5132450;27;20682;-74
2022/07/04 10:16:28;;;;;;;3.20;2.20;;;;;;;25.01;53.57;98635.69;5132659;28;20223;-74
2022/07/04 10:18:55;;;;;;;2.17;1.83;;;;;;;25.15;52.47;98634.84;5132503;28;20218;-73
2022/07/04 10:21:24;;;;;;;2.20;1.70;;;;;;;25.20;50.92;98637.84;5132658;28;20220;-74
2022/07/04 10:23:51;;;;;;;2.40;1.80;;;;;;;25.31;50.29;98644.69;5132673;28;20577;-74
2022/07/04 10:26:19;;;;;;;2.73;2.00;;;;;;;25.29;51.17;98634.03;5132514;28;20233;-74
2022/07/04 10:28:47;;;;;;;2.30;2.10;;;;;;;25.32;52.60;98632.84;5132650;28;20210;-74
2022/07/04 10:31:14;;;;;;;3.03;1.60;;;;;;;25.43;52.05;98635.91;5130969;28;20583;-74
2022/07/04 10:33:43;;;;;;;3.30;1.90;;;;;;;25.40;50.03;98639.00;5132578;28;20580;-74
2022/07/04 10:36:15;;;;;;;3.70;1.90;;;;;;;25.37;49.88;98627.72;5132265;28;20209;-77
2022/07/04 10:38:50;;;;;;;3.03;1.88;;;;;;;25.41;50.62;98629.84;5132474;28;20666;-78
2022/07/04 10:41:19;;;;;;;3.00;2.00;;;;;;;25.14;49.43;98622.34;5135610;27;20220;-79
2022/07/04 10:43:59;;;;;;;2.27;1.90;;;;;;;24.85;49.84;98619.59;5136793;27;20209;-79
2022/07/04 10:46:28;;;;;;;2.20;2.00;;;;;;;24.73;52.24;98617.50;5136228;27;20237;-79
2022/07/04 10:48:57;;;;;;;2.77;2.07;;;;;;;24.60;52.25;98607.34;5136833;27;20217;-78
2022/07/04 10:51:38;;;;;;;2.07;1.80;;;;;;;24.61;55.02;98618.97;5136364;27;20209;-79
2022/07/04 10:54:08;;;;;;;2.47;1.70;;;;;;;24.85;52.28;98621.47;5125023;27;20574;-77
2022/07/04 10:56:41;;;;;;;3.83;2.13;;;;;;;25.24;53.79;98617.53;5134777;27;20560;-79
2022/07/04 10:59:10;;;;;;;2.22;1.67;;;;;;;25.66;52.52;98623.09;5140179;27;20217;-77
2022/07/04 11:01:37;;;;;;;2.60;2.10;;;;;;;26.02;51.27;98624.00;5144460;27;20225;-77
2022/07/04 11:04:04;;;;;;;3.15;1.70;;;;;;;26.19;50.27;98620.03;5144367;27;20243;-77
2022/07/04 11:06:55;;;;;;;2.73;1.90;;;;;;;26.12;49.75;98610.16;5143695;27;20291;-78
2022/07/04 11:09:24;;;;;;;2.93;1.90;;;;;;;26.10;53.48;98617.63;5133129;27;20277;-78
2022/07/04 11:11:57;;;;;;;2.87;2.00;;;;;;;26.03;53.05;98617.53;5143250;27;20272;-78
2022/07/04 11:14:36;;;;;;;2.43;1.57;;;;;;;26.06;51.51;98602.78;5131496;27;20222;-78
2022/07/04 11:17:03;;;;;;;2.30;1.70;;;;;;;26.14;49.89;98611.63;5128246;27;20219;-77
2022/07/04 11:19:30;;;;;;;3.87;1.70;;;;;;;26.02;47.43;98596.91;5122734;27;20221;-77
2022/07/04 11:21:56;;;;;;;3.17;1.50;;;;;;;26.08;46.74;98601.56;5120686;27;20264;-78
2022/07/04 11:24:26;;;;;;;1.80;1.65;;;;;;;26.03;45.88;98598.59;5120916;27;20248;-78
2022/07/04 11:26:53;;;;;;;2.13;1.50;;;;;;;25.85;45.68;98591.91;5124253;27;20237;-77
2022/07/04 11:29:19;;;;;;;2.05;1.83;;;;;;;25.69;45.49;98581.28;5122828;27;20296;-78
2022/07/04 11:31:47;;;;;;;2.38;1.50;;;;;;;25.67;46.99;98584.16;5121526;27;20220;-78
2022/07/04 11:34:14;;;;;;;2.95;1.67;;;;;;;25.73;46.12;98575.28;5122553;27;20267;-78
2022/07/04 11:36:43;;;;;;;3.20;1.50;;;;;;;25.66;47.60;98563.53;5123649;27;20234;-78
2022/07/04 11:39:12;;;;;;;2.93;2.20;;;;;;;25.60;46.98;98564.31;5120478;27;20222;-78
2022/07/04 11:47:15;;;;;;;1.75;1.63;;;;;;;25.54;48.11;98543.41;5119722;27;20279;-78
2022/07/04 11:49:47;;;;;;;1.50;1.40;;;;;;;25.60;48.44;98550.75;5118215;27;20292;-79
2022/07/04 11:52:15;;;;;;;4.03;1.40;;;;;;;25.77;47.39;98549.50;5132293;27;20220;-78
2022/07/04 11:54:42;;;;;;;1.60;1.40;;;;;;;25.98;47.20;98557.69;5134982;27;20216;-78